<?xml version="1.0" encoding="UTF-8" standalone="no" ?>
<gpx xmlns="http://www.topografix.com/GPX/1/1" xmlns:xsi="http://www.w3.org/2001/XMLSchema-instance" xsi:schemaLocation="http://www.topografix.com/GPX/1/1 http://www.topografix.com/GPX/1/1/gpx.xsd" version="1.1" creator="VisuGPX - https://www.visugpx.com">
  <metadata>
    <name>Remise en forme août 2017</name>
    <desc><![CDATA[Cyclo pour remise en forme une heure de vélo par semaine]]></desc>
  </metadata>
  <trk>
    <name><![CDATA[Remise en forme août 2017_1]]></name>
    <trkseg>
      <trkpt lat="49.98126" lon="5.26848">
        <ele>339</ele>
        <time>2017-08-28T13:55:15Z</time>
      </trkpt>
      <trkpt lat="49.98124" lon="5.2685">
        <ele>340</ele>
        <time>2017-08-28T13:55:25Z</time>
      </trkpt>
      <trkpt lat="49.98124" lon="5.26849">
        <ele>339</ele>
        <time>2017-08-28T13:55:35Z</time>
      </trkpt>
      <trkpt lat="49.98124" lon="5.26849">
        <ele>339</ele>
        <time>2017-08-28T13:55:48Z</time>
      </trkpt>
      <trkpt lat="49.98124" lon="5.26848">
        <ele>339</ele>
        <time>2017-08-28T13:56:06Z</time>
      </trkpt>
      <trkpt lat="49.9813" lon="5.2684">
        <ele>339</ele>
        <time>2017-08-28T13:56:16Z</time>
      </trkpt>
      <trkpt lat="49.9813" lon="5.26838">
        <ele>339</ele>
        <time>2017-08-28T13:56:27Z</time>
      </trkpt>
      <trkpt lat="49.98133" lon="5.26836">
        <ele>339</ele>
        <time>2017-08-28T13:56:37Z</time>
      </trkpt>
      <trkpt lat="49.98141" lon="5.26832">
        <ele>339</ele>
        <time>2017-08-28T13:56:48Z</time>
      </trkpt>
      <trkpt lat="49.98158" lon="5.26773">
        <ele>339</ele>
        <time>2017-08-28T13:56:59Z</time>
      </trkpt>
      <trkpt lat="49.98193" lon="5.26771">
        <ele>339</ele>
        <time>2017-08-28T13:57:10Z</time>
      </trkpt>
      <trkpt lat="49.98221" lon="5.26763">
        <ele>341</ele>
        <time>2017-08-28T13:57:20Z</time>
      </trkpt>
      <trkpt lat="49.98248" lon="5.26746">
        <ele>343</ele>
        <time>2017-08-28T13:57:31Z</time>
      </trkpt>
      <trkpt lat="49.98272" lon="5.26736">
        <ele>345</ele>
        <time>2017-08-28T13:57:41Z</time>
      </trkpt>
      <trkpt lat="49.98295" lon="5.26731">
        <ele>346</ele>
        <time>2017-08-28T13:57:51Z</time>
      </trkpt>
      <trkpt lat="49.98315" lon="5.26726">
        <ele>348</ele>
        <time>2017-08-28T13:58:01Z</time>
      </trkpt>
      <trkpt lat="49.98338" lon="5.2672">
        <ele>349</ele>
        <time>2017-08-28T13:58:12Z</time>
      </trkpt>
      <trkpt lat="49.98362" lon="5.26716">
        <ele>351</ele>
        <time>2017-08-28T13:58:22Z</time>
      </trkpt>
      <trkpt lat="49.98382" lon="5.26735">
        <ele>352</ele>
        <time>2017-08-28T13:58:33Z</time>
      </trkpt>
      <trkpt lat="49.9839" lon="5.26781">
        <ele>353</ele>
        <time>2017-08-28T13:58:44Z</time>
      </trkpt>
      <trkpt lat="49.98397" lon="5.26819">
        <ele>354</ele>
        <time>2017-08-28T13:58:54Z</time>
      </trkpt>
      <trkpt lat="49.98403" lon="5.26863">
        <ele>355</ele>
        <time>2017-08-28T13:59:05Z</time>
      </trkpt>
      <trkpt lat="49.98409" lon="5.26894">
        <ele>356</ele>
        <time>2017-08-28T13:59:15Z</time>
      </trkpt>
      <trkpt lat="49.98415" lon="5.2693">
        <ele>358</ele>
        <time>2017-08-28T13:59:26Z</time>
      </trkpt>
      <trkpt lat="49.98422" lon="5.26971">
        <ele>359</ele>
        <time>2017-08-28T13:59:37Z</time>
      </trkpt>
      <trkpt lat="49.98429" lon="5.27015">
        <ele>361</ele>
        <time>2017-08-28T13:59:48Z</time>
      </trkpt>
      <trkpt lat="49.98434" lon="5.27057">
        <ele>363</ele>
        <time>2017-08-28T13:59:58Z</time>
      </trkpt>
      <trkpt lat="49.98436" lon="5.27095">
        <ele>364</ele>
        <time>2017-08-28T14:00:09Z</time>
      </trkpt>
      <trkpt lat="49.98439" lon="5.27138">
        <ele>366</ele>
        <time>2017-08-28T14:00:19Z</time>
      </trkpt>
      <trkpt lat="49.9844" lon="5.2718">
        <ele>369</ele>
        <time>2017-08-28T14:00:30Z</time>
      </trkpt>
      <trkpt lat="49.9844" lon="5.27219">
        <ele>370</ele>
        <time>2017-08-28T14:00:40Z</time>
      </trkpt>
      <trkpt lat="49.98439" lon="5.27265">
        <ele>372</ele>
        <time>2017-08-28T14:00:51Z</time>
      </trkpt>
      <trkpt lat="49.98437" lon="5.27314">
        <ele>373</ele>
        <time>2017-08-28T14:01:01Z</time>
      </trkpt>
      <trkpt lat="49.98435" lon="5.27367">
        <ele>374</ele>
        <time>2017-08-28T14:01:12Z</time>
      </trkpt>
      <trkpt lat="49.98434" lon="5.27428">
        <ele>375</ele>
        <time>2017-08-28T14:01:23Z</time>
      </trkpt>
      <trkpt lat="49.98442" lon="5.27503">
        <ele>374</ele>
        <time>2017-08-28T14:01:34Z</time>
      </trkpt>
      <trkpt lat="49.98459" lon="5.2759">
        <ele>374</ele>
        <time>2017-08-28T14:01:44Z</time>
      </trkpt>
      <trkpt lat="49.98479" lon="5.27694">
        <ele>372</ele>
        <time>2017-08-28T14:01:55Z</time>
      </trkpt>
      <trkpt lat="49.98496" lon="5.2779">
        <ele>372</ele>
        <time>2017-08-28T14:02:06Z</time>
      </trkpt>
      <trkpt lat="49.98508" lon="5.27857">
        <ele>373</ele>
        <time>2017-08-28T14:02:16Z</time>
      </trkpt>
      <trkpt lat="49.98518" lon="5.27913">
        <ele>374</ele>
        <time>2017-08-28T14:02:28Z</time>
      </trkpt>
      <trkpt lat="49.98518" lon="5.27956">
        <ele>376</ele>
        <time>2017-08-28T14:02:38Z</time>
      </trkpt>
      <trkpt lat="49.9852" lon="5.28004">
        <ele>376</ele>
        <time>2017-08-28T14:02:48Z</time>
      </trkpt>
      <trkpt lat="49.98522" lon="5.28056">
        <ele>378</ele>
        <time>2017-08-28T14:03:00Z</time>
      </trkpt>
      <trkpt lat="49.98522" lon="5.28099">
        <ele>379</ele>
        <time>2017-08-28T14:03:10Z</time>
      </trkpt>
      <trkpt lat="49.98525" lon="5.28143">
        <ele>380</ele>
        <time>2017-08-28T14:03:21Z</time>
      </trkpt>
      <trkpt lat="49.98525" lon="5.28182">
        <ele>381</ele>
        <time>2017-08-28T14:03:32Z</time>
      </trkpt>
      <trkpt lat="49.98494" lon="5.28212">
        <ele>381</ele>
        <time>2017-08-28T14:03:42Z</time>
      </trkpt>
      <trkpt lat="49.98423" lon="5.28218">
        <ele>376</ele>
        <time>2017-08-28T14:03:52Z</time>
      </trkpt>
      <trkpt lat="49.98317" lon="5.28221">
        <ele>370</ele>
        <time>2017-08-28T14:04:03Z</time>
      </trkpt>
      <trkpt lat="49.98206" lon="5.28249">
        <ele>363</ele>
        <time>2017-08-28T14:04:14Z</time>
      </trkpt>
      <trkpt lat="49.98129" lon="5.28323">
        <ele>358</ele>
        <time>2017-08-28T14:04:25Z</time>
      </trkpt>
      <trkpt lat="49.98079" lon="5.28384">
        <ele>358</ele>
        <time>2017-08-28T14:04:35Z</time>
      </trkpt>
      <trkpt lat="49.98028" lon="5.28466">
        <ele>358</ele>
        <time>2017-08-28T14:04:46Z</time>
      </trkpt>
      <trkpt lat="49.97989" lon="5.28531">
        <ele>358</ele>
        <time>2017-08-28T14:04:56Z</time>
      </trkpt>
      <trkpt lat="49.97958" lon="5.28585">
        <ele>359</ele>
        <time>2017-08-28T14:05:06Z</time>
      </trkpt>
      <trkpt lat="49.97939" lon="5.28644">
        <ele>359</ele>
        <time>2017-08-28T14:05:17Z</time>
      </trkpt>
      <trkpt lat="49.97911" lon="5.28688">
        <ele>360</ele>
        <time>2017-08-28T14:05:27Z</time>
      </trkpt>
      <trkpt lat="49.97878" lon="5.28724">
        <ele>361</ele>
        <time>2017-08-28T14:05:37Z</time>
      </trkpt>
      <trkpt lat="49.97842" lon="5.28722">
        <ele>362</ele>
        <time>2017-08-28T14:05:48Z</time>
      </trkpt>
      <trkpt lat="49.97815" lon="5.28685">
        <ele>362</ele>
        <time>2017-08-28T14:05:58Z</time>
      </trkpt>
      <trkpt lat="49.97784" lon="5.28666">
        <ele>364</ele>
        <time>2017-08-28T14:06:08Z</time>
      </trkpt>
      <trkpt lat="49.97762" lon="5.28661">
        <ele>366</ele>
        <time>2017-08-28T14:06:18Z</time>
      </trkpt>
      <trkpt lat="49.97734" lon="5.28659">
        <ele>366</ele>
        <time>2017-08-28T14:06:29Z</time>
      </trkpt>
      <trkpt lat="49.97701" lon="5.28655">
        <ele>367</ele>
        <time>2017-08-28T14:06:40Z</time>
      </trkpt>
      <trkpt lat="49.97677" lon="5.28658">
        <ele>368</ele>
        <time>2017-08-28T14:06:51Z</time>
      </trkpt>
      <trkpt lat="49.97676" lon="5.28723">
        <ele>368</ele>
        <time>2017-08-28T14:07:01Z</time>
      </trkpt>
      <trkpt lat="49.97688" lon="5.28811">
        <ele>368</ele>
        <time>2017-08-28T14:07:12Z</time>
      </trkpt>
      <trkpt lat="49.97715" lon="5.28867">
        <ele>369</ele>
        <time>2017-08-28T14:07:22Z</time>
      </trkpt>
      <trkpt lat="49.97739" lon="5.28913">
        <ele>371</ele>
        <time>2017-08-28T14:07:33Z</time>
      </trkpt>
      <trkpt lat="49.97759" lon="5.28951">
        <ele>372</ele>
        <time>2017-08-28T14:07:43Z</time>
      </trkpt>
      <trkpt lat="49.97776" lon="5.2899">
        <ele>374</ele>
        <time>2017-08-28T14:07:53Z</time>
      </trkpt>
      <trkpt lat="49.97788" lon="5.29029">
        <ele>375</ele>
        <time>2017-08-28T14:08:04Z</time>
      </trkpt>
      <trkpt lat="49.97796" lon="5.29059">
        <ele>376</ele>
        <time>2017-08-28T14:08:14Z</time>
      </trkpt>
      <trkpt lat="49.97803" lon="5.29096">
        <ele>378</ele>
        <time>2017-08-28T14:08:24Z</time>
      </trkpt>
      <trkpt lat="49.9781" lon="5.29137">
        <ele>379</ele>
        <time>2017-08-28T14:08:35Z</time>
      </trkpt>
      <trkpt lat="49.97814" lon="5.29175">
        <ele>381</ele>
        <time>2017-08-28T14:08:45Z</time>
      </trkpt>
      <trkpt lat="49.97818" lon="5.29209">
        <ele>383</ele>
        <time>2017-08-28T14:08:55Z</time>
      </trkpt>
      <trkpt lat="49.97821" lon="5.29242">
        <ele>384</ele>
        <time>2017-08-28T14:09:05Z</time>
      </trkpt>
      <trkpt lat="49.97823" lon="5.29274">
        <ele>385</ele>
        <time>2017-08-28T14:09:16Z</time>
      </trkpt>
      <trkpt lat="49.97827" lon="5.29306">
        <ele>387</ele>
        <time>2017-08-28T14:09:26Z</time>
      </trkpt>
      <trkpt lat="49.97832" lon="5.29344">
        <ele>389</ele>
        <time>2017-08-28T14:09:36Z</time>
      </trkpt>
      <trkpt lat="49.97838" lon="5.29385">
        <ele>390</ele>
        <time>2017-08-28T14:09:47Z</time>
      </trkpt>
      <trkpt lat="49.97843" lon="5.29422">
        <ele>392</ele>
        <time>2017-08-28T14:09:57Z</time>
      </trkpt>
      <trkpt lat="49.97847" lon="5.29455">
        <ele>393</ele>
        <time>2017-08-28T14:10:07Z</time>
      </trkpt>
      <trkpt lat="49.97852" lon="5.29494">
        <ele>395</ele>
        <time>2017-08-28T14:10:18Z</time>
      </trkpt>
      <trkpt lat="49.97856" lon="5.29538">
        <ele>396</ele>
        <time>2017-08-28T14:10:29Z</time>
      </trkpt>
      <trkpt lat="49.97859" lon="5.29575">
        <ele>397</ele>
        <time>2017-08-28T14:10:39Z</time>
      </trkpt>
      <trkpt lat="49.97864" lon="5.29611">
        <ele>399</ele>
        <time>2017-08-28T14:10:49Z</time>
      </trkpt>
      <trkpt lat="49.97868" lon="5.29651">
        <ele>401</ele>
        <time>2017-08-28T14:11:00Z</time>
      </trkpt>
      <trkpt lat="49.97871" lon="5.29685">
        <ele>402</ele>
        <time>2017-08-28T14:11:10Z</time>
      </trkpt>
      <trkpt lat="49.97875" lon="5.2972">
        <ele>404</ele>
        <time>2017-08-28T14:11:20Z</time>
      </trkpt>
      <trkpt lat="49.97878" lon="5.29754">
        <ele>405</ele>
        <time>2017-08-28T14:11:30Z</time>
      </trkpt>
      <trkpt lat="49.97885" lon="5.29794">
        <ele>407</ele>
        <time>2017-08-28T14:11:42Z</time>
      </trkpt>
      <trkpt lat="49.97893" lon="5.29836">
        <ele>409</ele>
        <time>2017-08-28T14:11:52Z</time>
      </trkpt>
      <trkpt lat="49.97903" lon="5.29875">
        <ele>411</ele>
        <time>2017-08-28T14:12:02Z</time>
      </trkpt>
      <trkpt lat="49.97914" lon="5.29917">
        <ele>412</ele>
        <time>2017-08-28T14:12:13Z</time>
      </trkpt>
      <trkpt lat="49.97926" lon="5.29956">
        <ele>413</ele>
        <time>2017-08-28T14:12:23Z</time>
      </trkpt>
      <trkpt lat="49.97939" lon="5.29993">
        <ele>414</ele>
        <time>2017-08-28T14:12:34Z</time>
      </trkpt>
      <trkpt lat="49.97947" lon="5.30023">
        <ele>414</ele>
        <time>2017-08-28T14:12:44Z</time>
      </trkpt>
      <trkpt lat="49.9796" lon="5.30066">
        <ele>415</ele>
        <time>2017-08-28T14:12:55Z</time>
      </trkpt>
      <trkpt lat="49.97978" lon="5.3012">
        <ele>416</ele>
        <time>2017-08-28T14:13:05Z</time>
      </trkpt>
      <trkpt lat="49.9801" lon="5.30202">
        <ele>415</ele>
        <time>2017-08-28T14:13:16Z</time>
      </trkpt>
      <trkpt lat="49.98053" lon="5.3029">
        <ele>413</ele>
        <time>2017-08-28T14:13:26Z</time>
      </trkpt>
      <trkpt lat="49.98123" lon="5.30426">
        <ele>406</ele>
        <time>2017-08-28T14:13:37Z</time>
      </trkpt>
      <trkpt lat="49.982" lon="5.30582">
        <ele>398</ele>
        <time>2017-08-28T14:13:47Z</time>
      </trkpt>
      <trkpt lat="49.98294" lon="5.30772">
        <ele>386</ele>
        <time>2017-08-28T14:13:58Z</time>
      </trkpt>
      <trkpt lat="49.98391" lon="5.30961">
        <ele>369</ele>
        <time>2017-08-28T14:14:09Z</time>
      </trkpt>
      <trkpt lat="49.98465" lon="5.31113">
        <ele>350</ele>
        <time>2017-08-28T14:14:19Z</time>
      </trkpt>
      <trkpt lat="49.98461" lon="5.31144">
        <ele>345</ele>
        <time>2017-08-28T14:14:29Z</time>
      </trkpt>
      <trkpt lat="49.98475" lon="5.31155">
        <ele>345</ele>
        <time>2017-08-28T14:14:39Z</time>
      </trkpt>
      <trkpt lat="49.98473" lon="5.31157">
        <ele>344</ele>
        <time>2017-08-28T14:14:49Z</time>
      </trkpt>
      <trkpt lat="49.98459" lon="5.31162">
        <ele>345</ele>
        <time>2017-08-28T14:14:59Z</time>
      </trkpt>
      <trkpt lat="49.98441" lon="5.31166">
        <ele>347</ele>
        <time>2017-08-28T14:15:10Z</time>
      </trkpt>
      <trkpt lat="49.98424" lon="5.3117">
        <ele>348</ele>
        <time>2017-08-28T14:15:20Z</time>
      </trkpt>
      <trkpt lat="49.98406" lon="5.31172">
        <ele>351</ele>
        <time>2017-08-28T14:15:31Z</time>
      </trkpt>
      <trkpt lat="49.98387" lon="5.31176">
        <ele>352</ele>
        <time>2017-08-28T14:15:41Z</time>
      </trkpt>
      <trkpt lat="49.98372" lon="5.31179">
        <ele>355</ele>
        <time>2017-08-28T14:15:51Z</time>
      </trkpt>
      <trkpt lat="49.98357" lon="5.31183">
        <ele>356</ele>
        <time>2017-08-28T14:16:01Z</time>
      </trkpt>
      <trkpt lat="49.98338" lon="5.31187">
        <ele>358</ele>
        <time>2017-08-28T14:16:12Z</time>
      </trkpt>
      <trkpt lat="49.98321" lon="5.31189">
        <ele>359</ele>
        <time>2017-08-28T14:16:22Z</time>
      </trkpt>
      <trkpt lat="49.98304" lon="5.31193">
        <ele>360</ele>
        <time>2017-08-28T14:16:33Z</time>
      </trkpt>
      <trkpt lat="49.98284" lon="5.31197">
        <ele>362</ele>
        <time>2017-08-28T14:16:43Z</time>
      </trkpt>
      <trkpt lat="49.98267" lon="5.31201">
        <ele>363</ele>
        <time>2017-08-28T14:16:53Z</time>
      </trkpt>
      <trkpt lat="49.98249" lon="5.31208">
        <ele>365</ele>
        <time>2017-08-28T14:17:03Z</time>
      </trkpt>
      <trkpt lat="49.98231" lon="5.31215">
        <ele>367</ele>
        <time>2017-08-28T14:17:14Z</time>
      </trkpt>
      <trkpt lat="49.98211" lon="5.31226">
        <ele>368</ele>
        <time>2017-08-28T14:17:24Z</time>
      </trkpt>
      <trkpt lat="49.98192" lon="5.31244">
        <ele>370</ele>
        <time>2017-08-28T14:17:34Z</time>
      </trkpt>
      <trkpt lat="49.98171" lon="5.31265">
        <ele>370</ele>
        <time>2017-08-28T14:17:44Z</time>
      </trkpt>
      <trkpt lat="49.9815" lon="5.31288">
        <ele>372</ele>
        <time>2017-08-28T14:17:55Z</time>
      </trkpt>
      <trkpt lat="49.98129" lon="5.31313">
        <ele>373</ele>
        <time>2017-08-28T14:18:06Z</time>
      </trkpt>
      <trkpt lat="49.98109" lon="5.31333">
        <ele>374</ele>
        <time>2017-08-28T14:18:17Z</time>
      </trkpt>
      <trkpt lat="49.98083" lon="5.31357">
        <ele>375</ele>
        <time>2017-08-28T14:18:27Z</time>
      </trkpt>
      <trkpt lat="49.98056" lon="5.31377">
        <ele>376</ele>
        <time>2017-08-28T14:18:37Z</time>
      </trkpt>
      <trkpt lat="49.98028" lon="5.31396">
        <ele>376</ele>
        <time>2017-08-28T14:18:47Z</time>
      </trkpt>
      <trkpt lat="49.98002" lon="5.31417">
        <ele>377</ele>
        <time>2017-08-28T14:18:58Z</time>
      </trkpt>
      <trkpt lat="49.97972" lon="5.31436">
        <ele>377</ele>
        <time>2017-08-28T14:19:08Z</time>
      </trkpt>
      <trkpt lat="49.97933" lon="5.31455">
        <ele>378</ele>
        <time>2017-08-28T14:19:18Z</time>
      </trkpt>
      <trkpt lat="49.97894" lon="5.31467">
        <ele>379</ele>
        <time>2017-08-28T14:19:28Z</time>
      </trkpt>
      <trkpt lat="49.97839" lon="5.3147">
        <ele>379</ele>
        <time>2017-08-28T14:19:39Z</time>
      </trkpt>
      <trkpt lat="49.97781" lon="5.31471">
        <ele>379</ele>
        <time>2017-08-28T14:19:49Z</time>
      </trkpt>
      <trkpt lat="49.97721" lon="5.31471">
        <ele>379</ele>
        <time>2017-08-28T14:19:59Z</time>
      </trkpt>
      <trkpt lat="49.97657" lon="5.31471">
        <ele>378</ele>
        <time>2017-08-28T14:20:09Z</time>
      </trkpt>
      <trkpt lat="49.97587" lon="5.31473">
        <ele>377</ele>
        <time>2017-08-28T14:20:19Z</time>
      </trkpt>
      <trkpt lat="49.97498" lon="5.31475">
        <ele>375</ele>
        <time>2017-08-28T14:20:30Z</time>
      </trkpt>
      <trkpt lat="49.97407" lon="5.31476">
        <ele>372</ele>
        <time>2017-08-28T14:20:41Z</time>
      </trkpt>
      <trkpt lat="49.97311" lon="5.31366">
        <ele>364</ele>
        <time>2017-08-28T14:20:51Z</time>
      </trkpt>
      <trkpt lat="49.97245" lon="5.31203">
        <ele>356</ele>
        <time>2017-08-28T14:21:01Z</time>
      </trkpt>
      <trkpt lat="49.97223" lon="5.31073">
        <ele>355</ele>
        <time>2017-08-28T14:21:12Z</time>
      </trkpt>
      <trkpt lat="49.97218" lon="5.31006">
        <ele>358</ele>
        <time>2017-08-28T14:21:22Z</time>
      </trkpt>
      <trkpt lat="49.97214" lon="5.30965">
        <ele>359</ele>
        <time>2017-08-28T14:21:32Z</time>
      </trkpt>
      <trkpt lat="49.9721" lon="5.30924">
        <ele>361</ele>
        <time>2017-08-28T14:21:43Z</time>
      </trkpt>
      <trkpt lat="49.97207" lon="5.30885">
        <ele>361</ele>
        <time>2017-08-28T14:21:53Z</time>
      </trkpt>
      <trkpt lat="49.97202" lon="5.30839">
        <ele>363</ele>
        <time>2017-08-28T14:22:04Z</time>
      </trkpt>
      <trkpt lat="49.97198" lon="5.30794">
        <ele>364</ele>
        <time>2017-08-28T14:22:15Z</time>
      </trkpt>
      <trkpt lat="49.97194" lon="5.30754">
        <ele>365</ele>
        <time>2017-08-28T14:22:25Z</time>
      </trkpt>
      <trkpt lat="49.9719" lon="5.30713">
        <ele>366</ele>
        <time>2017-08-28T14:22:35Z</time>
      </trkpt>
      <trkpt lat="49.97186" lon="5.30666">
        <ele>368</ele>
        <time>2017-08-28T14:22:46Z</time>
      </trkpt>
      <trkpt lat="49.97183" lon="5.30626">
        <ele>369</ele>
        <time>2017-08-28T14:22:56Z</time>
      </trkpt>
      <trkpt lat="49.97179" lon="5.30586">
        <ele>370</ele>
        <time>2017-08-28T14:23:06Z</time>
      </trkpt>
      <trkpt lat="49.97175" lon="5.30545">
        <ele>372</ele>
        <time>2017-08-28T14:23:16Z</time>
      </trkpt>
      <trkpt lat="49.97172" lon="5.30501">
        <ele>373</ele>
        <time>2017-08-28T14:23:27Z</time>
      </trkpt>
      <trkpt lat="49.97161" lon="5.30463">
        <ele>374</ele>
        <time>2017-08-28T14:23:37Z</time>
      </trkpt>
      <trkpt lat="49.9715" lon="5.30421">
        <ele>376</ele>
        <time>2017-08-28T14:23:47Z</time>
      </trkpt>
      <trkpt lat="49.97152" lon="5.30377">
        <ele>377</ele>
        <time>2017-08-28T14:23:57Z</time>
      </trkpt>
      <trkpt lat="49.97156" lon="5.30329">
        <ele>377</ele>
        <time>2017-08-28T14:24:07Z</time>
      </trkpt>
      <trkpt lat="49.9716" lon="5.30278">
        <ele>378</ele>
        <time>2017-08-28T14:24:18Z</time>
      </trkpt>
      <trkpt lat="49.97164" lon="5.30221">
        <ele>379</ele>
        <time>2017-08-28T14:24:28Z</time>
      </trkpt>
      <trkpt lat="49.97167" lon="5.30164">
        <ele>380</ele>
        <time>2017-08-28T14:24:38Z</time>
      </trkpt>
      <trkpt lat="49.97172" lon="5.30108">
        <ele>382</ele>
        <time>2017-08-28T14:24:49Z</time>
      </trkpt>
      <trkpt lat="49.97177" lon="5.30059">
        <ele>383</ele>
        <time>2017-08-28T14:24:59Z</time>
      </trkpt>
      <trkpt lat="49.97183" lon="5.30013">
        <ele>383</ele>
        <time>2017-08-28T14:25:09Z</time>
      </trkpt>
      <trkpt lat="49.97189" lon="5.29951">
        <ele>385</ele>
        <time>2017-08-28T14:25:20Z</time>
      </trkpt>
      <trkpt lat="49.97189" lon="5.299">
        <ele>386</ele>
        <time>2017-08-28T14:25:30Z</time>
      </trkpt>
      <trkpt lat="49.97192" lon="5.29846">
        <ele>387</ele>
        <time>2017-08-28T14:25:40Z</time>
      </trkpt>
      <trkpt lat="49.97195" lon="5.29775">
        <ele>388</ele>
        <time>2017-08-28T14:25:51Z</time>
      </trkpt>
      <trkpt lat="49.97201" lon="5.29711">
        <ele>389</ele>
        <time>2017-08-28T14:26:02Z</time>
      </trkpt>
      <trkpt lat="49.9721" lon="5.29657">
        <ele>389</ele>
        <time>2017-08-28T14:26:12Z</time>
      </trkpt>
      <trkpt lat="49.9722" lon="5.29594">
        <ele>390</ele>
        <time>2017-08-28T14:26:23Z</time>
      </trkpt>
      <trkpt lat="49.97233" lon="5.29531">
        <ele>391</ele>
        <time>2017-08-28T14:26:34Z</time>
      </trkpt>
      <trkpt lat="49.97248" lon="5.29462">
        <ele>392</ele>
        <time>2017-08-28T14:26:44Z</time>
      </trkpt>
      <trkpt lat="49.97268" lon="5.29392">
        <ele>391</ele>
        <time>2017-08-28T14:26:54Z</time>
      </trkpt>
      <trkpt lat="49.97295" lon="5.29307">
        <ele>391</ele>
        <time>2017-08-28T14:27:04Z</time>
      </trkpt>
      <trkpt lat="49.9733" lon="5.29185">
        <ele>388</ele>
        <time>2017-08-28T14:27:15Z</time>
      </trkpt>
      <trkpt lat="49.97311" lon="5.29034">
        <ele>382</ele>
        <time>2017-08-28T14:27:25Z</time>
      </trkpt>
      <trkpt lat="49.97329" lon="5.28926">
        <ele>382</ele>
        <time>2017-08-28T14:27:35Z</time>
      </trkpt>
      <trkpt lat="49.97343" lon="5.28835">
        <ele>382</ele>
        <time>2017-08-28T14:27:45Z</time>
      </trkpt>
      <trkpt lat="49.97354" lon="5.28735">
        <ele>383</ele>
        <time>2017-08-28T14:27:55Z</time>
      </trkpt>
      <trkpt lat="49.97374" lon="5.28632">
        <ele>383</ele>
        <time>2017-08-28T14:28:06Z</time>
      </trkpt>
      <trkpt lat="49.97402" lon="5.28544">
        <ele>383</ele>
        <time>2017-08-28T14:28:17Z</time>
      </trkpt>
      <trkpt lat="49.9742" lon="5.28477">
        <ele>384</ele>
        <time>2017-08-28T14:28:27Z</time>
      </trkpt>
      <trkpt lat="49.97438" lon="5.28415">
        <ele>385</ele>
        <time>2017-08-28T14:28:37Z</time>
      </trkpt>
      <trkpt lat="49.97458" lon="5.28354">
        <ele>385</ele>
        <time>2017-08-28T14:28:47Z</time>
      </trkpt>
      <trkpt lat="49.97479" lon="5.28282">
        <ele>386</ele>
        <time>2017-08-28T14:28:58Z</time>
      </trkpt>
      <trkpt lat="49.97503" lon="5.28213">
        <ele>385</ele>
        <time>2017-08-28T14:29:08Z</time>
      </trkpt>
      <trkpt lat="49.97527" lon="5.28109">
        <ele>384</ele>
        <time>2017-08-28T14:29:19Z</time>
      </trkpt>
      <trkpt lat="49.97546" lon="5.28015">
        <ele>383</ele>
        <time>2017-08-28T14:29:30Z</time>
      </trkpt>
      <trkpt lat="49.97566" lon="5.27909">
        <ele>382</ele>
        <time>2017-08-28T14:29:40Z</time>
      </trkpt>
      <trkpt lat="49.97581" lon="5.27799">
        <ele>381</ele>
        <time>2017-08-28T14:29:51Z</time>
      </trkpt>
      <trkpt lat="49.97594" lon="5.27704">
        <ele>378</ele>
        <time>2017-08-28T14:30:01Z</time>
      </trkpt>
      <trkpt lat="49.97605" lon="5.27677">
        <ele>377</ele>
        <time>2017-08-28T14:30:12Z</time>
      </trkpt>
      <trkpt lat="49.97607" lon="5.27739">
        <ele>377</ele>
        <time>2017-08-28T14:30:23Z</time>
      </trkpt>
      <trkpt lat="49.97609" lon="5.27808">
        <ele>378</ele>
        <time>2017-08-28T14:30:33Z</time>
      </trkpt>
      <trkpt lat="49.97606" lon="5.2788">
        <ele>378</ele>
        <time>2017-08-28T14:30:43Z</time>
      </trkpt>
      <trkpt lat="49.97603" lon="5.27956">
        <ele>378</ele>
        <time>2017-08-28T14:30:53Z</time>
      </trkpt>
      <trkpt lat="49.976" lon="5.28042">
        <ele>379</ele>
        <time>2017-08-28T14:31:04Z</time>
      </trkpt>
      <trkpt lat="49.97598" lon="5.28131">
        <ele>379</ele>
        <time>2017-08-28T14:31:15Z</time>
      </trkpt>
      <trkpt lat="49.97599" lon="5.28217">
        <ele>378</ele>
        <time>2017-08-28T14:31:25Z</time>
      </trkpt>
      <trkpt lat="49.97607" lon="5.28306">
        <ele>379</ele>
        <time>2017-08-28T14:31:35Z</time>
      </trkpt>
      <trkpt lat="49.97623" lon="5.28414">
        <ele>378</ele>
        <time>2017-08-28T14:31:46Z</time>
      </trkpt>
      <trkpt lat="49.97639" lon="5.28522">
        <ele>377</ele>
        <time>2017-08-28T14:31:56Z</time>
      </trkpt>
      <trkpt lat="49.97655" lon="5.2863">
        <ele>374</ele>
        <time>2017-08-28T14:32:06Z</time>
      </trkpt>
      <trkpt lat="49.97696" lon="5.28613">
        <ele>373</ele>
        <time>2017-08-28T14:32:16Z</time>
      </trkpt>
      <trkpt lat="49.97734" lon="5.28549">
        <ele>372</ele>
        <time>2017-08-28T14:32:26Z</time>
      </trkpt>
      <trkpt lat="49.97754" lon="5.28454">
        <ele>373</ele>
        <time>2017-08-28T14:32:37Z</time>
      </trkpt>
      <trkpt lat="49.97771" lon="5.28353">
        <ele>371</ele>
        <time>2017-08-28T14:32:47Z</time>
      </trkpt>
      <trkpt lat="49.97786" lon="5.28244">
        <ele>369</ele>
        <time>2017-08-28T14:32:57Z</time>
      </trkpt>
      <trkpt lat="49.978" lon="5.28103">
        <ele>367</ele>
        <time>2017-08-28T14:33:08Z</time>
      </trkpt>
      <trkpt lat="49.97811" lon="5.27984">
        <ele>365</ele>
        <time>2017-08-28T14:33:18Z</time>
      </trkpt>
      <trkpt lat="49.97818" lon="5.27867">
        <ele>363</ele>
        <time>2017-08-28T14:33:29Z</time>
      </trkpt>
      <trkpt lat="49.97821" lon="5.27754">
        <ele>363</ele>
        <time>2017-08-28T14:33:39Z</time>
      </trkpt>
      <trkpt lat="49.97816" lon="5.27628">
        <ele>362</ele>
        <time>2017-08-28T14:33:50Z</time>
      </trkpt>
      <trkpt lat="49.97811" lon="5.27506">
        <ele>361</ele>
        <time>2017-08-28T14:34:01Z</time>
      </trkpt>
      <trkpt lat="49.97808" lon="5.27396">
        <ele>361</ele>
        <time>2017-08-28T14:34:11Z</time>
      </trkpt>
      <trkpt lat="49.97816" lon="5.27289">
        <ele>359</ele>
        <time>2017-08-28T14:34:21Z</time>
      </trkpt>
      <trkpt lat="49.97828" lon="5.2717">
        <ele>359</ele>
        <time>2017-08-28T14:34:32Z</time>
      </trkpt>
      <trkpt lat="49.97841" lon="5.27061">
        <ele>357</ele>
        <time>2017-08-28T14:34:42Z</time>
      </trkpt>
      <trkpt lat="49.97846" lon="5.26946">
        <ele>356</ele>
        <time>2017-08-28T14:34:52Z</time>
      </trkpt>
      <trkpt lat="49.97837" lon="5.26827">
        <ele>355</ele>
        <time>2017-08-28T14:35:03Z</time>
      </trkpt>
      <trkpt lat="49.97835" lon="5.26707">
        <ele>353</ele>
        <time>2017-08-28T14:35:14Z</time>
      </trkpt>
      <trkpt lat="49.97841" lon="5.26597">
        <ele>353</ele>
        <time>2017-08-28T14:35:24Z</time>
      </trkpt>
      <trkpt lat="49.97844" lon="5.2647">
        <ele>351</ele>
        <time>2017-08-28T14:35:34Z</time>
      </trkpt>
      <trkpt lat="49.97845" lon="5.2631">
        <ele>348</ele>
        <time>2017-08-28T14:35:45Z</time>
      </trkpt>
      <trkpt lat="49.97839" lon="5.26159">
        <ele>343</ele>
        <time>2017-08-28T14:35:55Z</time>
      </trkpt>
      <trkpt lat="49.97839" lon="5.25997">
        <ele>336</ele>
        <time>2017-08-28T14:36:06Z</time>
      </trkpt>
      <trkpt lat="49.97849" lon="5.25881">
        <ele>332</ele>
        <time>2017-08-28T14:36:16Z</time>
      </trkpt>
      <trkpt lat="49.97868" lon="5.25742">
        <ele>329</ele>
        <time>2017-08-28T14:36:26Z</time>
      </trkpt>
      <trkpt lat="49.97924" lon="5.25662">
        <ele>328</ele>
        <time>2017-08-28T14:36:36Z</time>
      </trkpt>
      <trkpt lat="49.97979" lon="5.25635">
        <ele>330</ele>
        <time>2017-08-28T14:36:47Z</time>
      </trkpt>
      <trkpt lat="49.9802" lon="5.2562">
        <ele>332</ele>
        <time>2017-08-28T14:36:58Z</time>
      </trkpt>
      <trkpt lat="49.98059" lon="5.2562">
        <ele>335</ele>
        <time>2017-08-28T14:37:08Z</time>
      </trkpt>
      <trkpt lat="49.98102" lon="5.25624">
        <ele>336</ele>
        <time>2017-08-28T14:37:18Z</time>
      </trkpt>
      <trkpt lat="49.98146" lon="5.25637">
        <ele>336</ele>
        <time>2017-08-28T14:37:29Z</time>
      </trkpt>
      <trkpt lat="49.98167" lon="5.25728">
        <ele>334</ele>
        <time>2017-08-28T14:37:39Z</time>
      </trkpt>
      <trkpt lat="49.98192" lon="5.25828">
        <ele>331</ele>
        <time>2017-08-28T14:37:49Z</time>
      </trkpt>
      <trkpt lat="49.98212" lon="5.25913">
        <ele>333</ele>
        <time>2017-08-28T14:38:00Z</time>
      </trkpt>
      <trkpt lat="49.98225" lon="5.25965">
        <ele>334</ele>
        <time>2017-08-28T14:38:10Z</time>
      </trkpt>
      <trkpt lat="49.98235" lon="5.26012">
        <ele>336</ele>
        <time>2017-08-28T14:38:20Z</time>
      </trkpt>
      <trkpt lat="49.98249" lon="5.26062">
        <ele>338</ele>
        <time>2017-08-28T14:38:31Z</time>
      </trkpt>
      <trkpt lat="49.98252" lon="5.26111">
        <ele>339</ele>
        <time>2017-08-28T14:38:41Z</time>
      </trkpt>
      <trkpt lat="49.98263" lon="5.26157">
        <ele>340</ele>
        <time>2017-08-28T14:38:52Z</time>
      </trkpt>
      <trkpt lat="49.98275" lon="5.26201">
        <ele>342</ele>
        <time>2017-08-28T14:39:03Z</time>
      </trkpt>
      <trkpt lat="49.98287" lon="5.26241">
        <ele>343</ele>
        <time>2017-08-28T14:39:13Z</time>
      </trkpt>
      <trkpt lat="49.98302" lon="5.26289">
        <ele>345</ele>
        <time>2017-08-28T14:39:24Z</time>
      </trkpt>
      <trkpt lat="49.98317" lon="5.26333">
        <ele>347</ele>
        <time>2017-08-28T14:39:34Z</time>
      </trkpt>
      <trkpt lat="49.98335" lon="5.26382">
        <ele>348</ele>
        <time>2017-08-28T14:39:45Z</time>
      </trkpt>
      <trkpt lat="49.98346" lon="5.26442">
        <ele>349</ele>
        <time>2017-08-28T14:39:56Z</time>
      </trkpt>
      <trkpt lat="49.98353" lon="5.26496">
        <ele>350</ele>
        <time>2017-08-28T14:40:06Z</time>
      </trkpt>
      <trkpt lat="49.9836" lon="5.26555">
        <ele>352</ele>
        <time>2017-08-28T14:40:16Z</time>
      </trkpt>
      <trkpt lat="49.98368" lon="5.26621">
        <ele>352</ele>
        <time>2017-08-28T14:40:27Z</time>
      </trkpt>
      <trkpt lat="49.98376" lon="5.26674">
        <ele>353</ele>
        <time>2017-08-28T14:40:37Z</time>
      </trkpt>
      <trkpt lat="49.98353" lon="5.26711">
        <ele>355</ele>
        <time>2017-08-28T14:40:48Z</time>
      </trkpt>
      <trkpt lat="49.9828" lon="5.26728">
        <ele>355</ele>
        <time>2017-08-28T14:40:59Z</time>
      </trkpt>
      <trkpt lat="49.98193" lon="5.26766">
        <ele>350</ele>
        <time>2017-08-28T14:41:10Z</time>
      </trkpt>
      <trkpt lat="49.98149" lon="5.26832">
        <ele>344</ele>
        <time>2017-08-28T14:41:20Z</time>
      </trkpt>
      <trkpt lat="49.98137" lon="5.26842">
        <ele>342</ele>
        <time>2017-08-28T14:41:31Z</time>
      </trkpt>
      <trkpt lat="49.98133" lon="5.26841">
        <ele>342</ele>
        <time>2017-08-28T14:41:42Z</time>
      </trkpt>
      <trkpt lat="49.98131" lon="5.26839">
        <ele>342</ele>
        <time>2017-08-28T14:41:52Z</time>
      </trkpt>
      <trkpt lat="49.9813" lon="5.26837">
        <ele>342</ele>
        <time>2017-08-28T14:42:03Z</time>
      </trkpt>
      <trkpt lat="49.98124" lon="5.26844">
        <ele>342</ele>
        <time>2017-08-28T14:42:13Z</time>
      </trkpt>
      <trkpt lat="49.98124" lon="5.26845">
        <ele>342</ele>
        <time>2017-08-28T14:42:14Z</time>
      </trkpt>
    </trkseg>
  </trk>
</gpx>